createdAt,value
2017-11-16T00:00:03.933Z,0
2017-11-16T00:01:04.155Z,0
2017-11-16T00:02:03.892Z,0
2017-11-16T00:03:04.132Z,0
2017-11-16T00:04:03.349Z,0
2017-11-16T00:05:04.113Z,0
2017-11-16T00:06:04.107Z,0
2017-11-16T00:07:03.936Z,0
2017-11-16T00:08:04.079Z,0
2017-11-16T00:09:03.552Z,0
2017-11-16T00:10:04.157Z,0
2017-11-16T00:11:04.057Z,0
2017-11-16T00:12:03.880Z,0
2017-11-16T00:13:04.029Z,0
2017-11-16T00:14:04.024Z,0
2017-11-16T00:15:03.751Z,0
2017-11-16T00:16:03.838Z,0
2017-11-16T00:17:03.729Z,0
2017-11-16T00:18:03.722Z,0
2017-11-16T00:19:03.195Z,0
2017-11-16T00:20:03.790Z,0
2017-11-16T00:21:03.683Z,0
2017-11-16T00:22:03.414Z,0
2017-11-16T00:23:03.916Z,0
2017-11-16T00:24:03.920Z,0
2017-11-16T00:25:03.638Z,0
2017-11-16T00:26:03.379Z,0
2017-11-16T00:27:03.727Z,0
2017-11-16T00:28:03.871Z,0
2017-11-16T00:29:03.603Z,0
2017-11-16T00:30:03.585Z,0
2017-11-16T00:31:04.039Z,0
2017-11-16T00:32:03.565Z,0
2017-11-16T00:33:03.914Z,0
2017-11-16T00:34:03.810Z,0
2017-11-16T00:35:03.819Z,0
2017-11-16T00:36:03.823Z,0
2017-11-16T00:37:03.774Z,0
2017-11-16T00:38:03.774Z,0
2017-11-16T00:39:03.746Z,0
2017-11-16T00:40:03.750Z,0
2017-11-16T00:41:03.725Z,0
2017-11-16T00:42:03.485Z,0
2017-11-16T00:43:03.450Z,0
2017-11-16T00:44:03.697Z,0
2017-11-16T00:45:03.432Z,0
2017-11-16T00:46:03.420Z,0
2017-11-16T00:47:03.665Z,0
2017-11-16T00:48:02.875Z,0
2017-11-16T00:49:03.440Z,0
2017-11-16T00:50:03.570Z,0
2017-11-16T00:51:03.631Z,0
2017-11-16T00:52:03.626Z,0
2017-11-16T00:53:03.600Z,0
2017-11-16T00:54:03.340Z,0
2017-11-16T00:55:03.576Z,0
2017-11-16T00:56:03.320Z,0
2017-11-16T00:57:03.403Z,0
2017-11-16T00:58:03.285Z,0
2017-11-16T00:59:03.280Z,0
2017-11-16T01:00:02.849Z,0
2017-11-16T01:01:03.522Z,0
2017-11-16T01:02:03.506Z,0
2017-11-16T01:03:03.499Z,0
2017-11-16T01:04:03.495Z,0
2017-11-16T01:05:02.956Z,0
2017-11-16T01:06:02.953Z,0
2017-11-16T01:07:02.932Z,0
2017-11-16T01:08:03.441Z,0
2017-11-16T01:09:03.175Z,0
2017-11-16T01:10:03.524Z,0
2017-11-16T01:11:03.412Z,0
2017-11-16T01:12:03.403Z,0
2017-11-16T01:13:02.871Z,0
2017-11-16T01:14:03.386Z,0
2017-11-16T01:15:03.373Z,0
2017-11-16T01:16:03.106Z,0
2017-11-16T01:17:03.092Z,0
2017-11-16T01:18:03.437Z,0
2017-11-16T01:19:03.332Z,0
2017-11-16T01:20:02.806Z,0
2017-11-16T01:21:03.044Z,0
2017-11-16T01:22:03.305Z,0
2017-11-16T01:23:03.284Z,0
2017-11-16T01:24:03.023Z,0
2017-11-16T01:25:03.272Z,0
2017-11-16T01:26:02.994Z,0
2017-11-16T01:27:03.252Z,0
2017-11-16T01:28:02.707Z,0
2017-11-16T01:29:03.218Z,0
2017-11-16T01:30:02.691Z,0
2017-11-16T01:31:03.204Z,0
2017-11-16T01:32:02.927Z,0
2017-11-16T01:33:02.660Z,0
2017-11-16T01:34:03.170Z,0
2017-11-16T01:35:02.635Z,0
2017-11-16T01:36:02.884Z,0
2017-11-16T01:37:03.135Z,0
2017-11-16T01:38:03.236Z,0
2017-11-16T01:39:02.692Z,0
2017-11-16T01:40:02.846Z,0
2017-11-16T01:41:02.833Z,0
2017-11-16T01:42:02.825Z,0
2017-11-16T01:43:02.555Z,0
2017-11-16T01:44:02.800Z,0
2017-11-16T01:45:02.548Z,0
2017-11-16T01:46:02.627Z,0
2017-11-16T01:47:02.773Z,0
2017-11-16T01:48:03.017Z,0
2017-11-16T01:49:02.491Z,0
2017-11-16T01:50:02.996Z,0
2017-11-16T01:51:02.724Z,0
2017-11-16T01:52:02.982Z,0
2017-11-16T01:53:02.713Z,0
2017-11-16T01:54:02.954Z,0
2017-11-16T01:55:03.049Z,0
2017-11-16T01:56:02.674Z,0
2017-11-16T01:57:02.929Z,0
2017-11-16T01:58:02.647Z,0
2017-11-16T01:59:02.900Z,0
2017-11-16T02:00:02.909Z,0
2017-11-16T02:01:02.464Z,0
2017-11-16T02:02:02.869Z,0
2017-11-16T02:03:02.865Z,0
2017-11-16T02:04:02.844Z,0
2017-11-16T02:05:02.318Z,0
2017-11-16T02:06:02.577Z,0
2017-11-16T02:07:02.931Z,0
2017-11-16T02:08:02.288Z,0
2017-11-16T02:09:02.279Z,0
2017-11-16T02:10:02.787Z,0
2017-11-16T02:11:02.792Z,0
2017-11-16T02:12:02.339Z,0
2017-11-16T02:13:02.233Z,0
2017-11-16T02:14:02.750Z,0
2017-11-16T02:15:02.728Z,0
2017-11-16T02:16:02.457Z,0
2017-11-16T02:17:02.448Z,0
2017-11-16T02:18:02.283Z,0
2017-11-16T02:19:02.169Z,0
2017-11-16T02:20:02.690Z,0
2017-11-16T02:21:02.661Z,0
2017-11-16T02:22:02.137Z,0
2017-11-16T02:23:02.510Z,0
2017-11-16T02:24:02.629Z,0
2017-11-16T02:25:02.480Z,0
2017-11-16T02:26:02.628Z,0
2017-11-16T02:27:02.083Z,0
2017-11-16T02:28:02.599Z,0
2017-11-16T02:29:02.592Z,0
2017-11-16T02:30:02.673Z,0
2017-11-16T02:31:01.784Z,0
2017-11-16T02:32:02.553Z,0
2017-11-16T02:33:02.564Z,0
2017-11-16T02:34:02.010Z,0
2017-11-16T02:35:02.519Z,0
2017-11-16T02:36:02.353Z,0
2017-11-16T02:37:02.249Z,0
2017-11-16T02:38:01.967Z,0
2017-11-16T02:39:02.486Z,0
2017-11-16T02:40:02.214Z,0
2017-11-16T02:41:02.451Z,0
2017-11-16T02:42:02.450Z,0
2017-11-16T02:43:02.532Z,0
2017-11-16T02:44:02.162Z,0
2017-11-16T02:45:01.996Z,0
2017-11-16T02:46:02.415Z,0
2017-11-16T02:47:01.878Z,0
2017-11-16T02:48:02.391Z,0
2017-11-16T02:49:02.108Z,0
2017-11-16T02:50:01.853Z,0
2017-11-16T02:51:02.194Z,0
2017-11-16T02:52:01.819Z,0
2017-11-16T02:53:02.451Z,0
2017-11-16T02:54:01.537Z,0
2017-11-16T02:55:02.406Z,0
2017-11-16T02:56:02.064Z,0
2017-11-16T02:57:02.300Z,0
2017-11-16T02:58:02.289Z,0
2017-11-16T02:59:02.257Z,0
2017-11-16T03:00:01.735Z,0
2017-11-16T03:01:02.241Z,0
2017-11-16T03:02:02.233Z,0
2017-11-16T03:03:01.697Z,0
2017-11-16T03:04:02.211Z,0
2017-11-16T03:05:02.299Z,0
2017-11-16T03:06:01.932Z,0
2017-11-16T03:07:01.919Z,0
2017-11-16T03:08:01.915Z,0
2017-11-16T03:09:01.901Z,0
2017-11-16T03:10:01.907Z,0
2017-11-16T03:11:01.876Z,0
2017-11-16T03:12:02.120Z,0
2017-11-16T03:13:02.130Z,0
2017-11-16T03:14:01.964Z,0
2017-11-16T03:15:01.675Z,0
2017-11-16T03:16:02.079Z,0
2017-11-16T03:17:01.827Z,0
2017-11-16T03:18:01.539Z,0
2017-11-16T03:19:01.787Z,0
2017-11-16T03:20:02.050Z,0
2017-11-16T03:21:02.028Z,0
2017-11-16T03:22:01.771Z,0
2017-11-16T03:23:02.103Z,0
2017-11-16T03:24:01.736Z,0
2017-11-16T03:25:01.992Z,0
2017-11-16T03:26:01.713Z,0
2017-11-16T03:27:01.856Z,0
2017-11-16T03:28:01.955Z,0
2017-11-16T03:29:01.685Z,0
2017-11-16T03:30:01.674Z,0
2017-11-16T03:31:01.930Z,0
2017-11-16T03:32:01.923Z,0
2017-11-16T03:33:01.913Z,0
2017-11-16T03:34:01.733Z,0
2017-11-16T03:35:01.624Z,0
2017-11-16T03:36:01.612Z,0
2017-11-16T03:37:01.861Z,0
2017-11-16T03:38:01.074Z,0
2017-11-16T03:39:01.841Z,0
2017-11-16T03:40:01.306Z,0
2017-11-16T03:41:01.824Z,0
2017-11-16T03:42:01.802Z,0
2017-11-16T03:43:01.800Z,0
2017-11-16T03:44:01.553Z,0
2017-11-16T03:45:01.612Z,0
2017-11-16T03:46:01.505Z,0
2017-11-16T03:47:00.972Z,0
2017-11-16T03:48:01.486Z,0
2017-11-16T03:49:01.730Z,0
2017-11-16T03:50:01.464Z,0
2017-11-16T03:51:01.195Z,0
2017-11-16T03:52:01.536Z,0
2017-11-16T03:53:01.707Z,0
2017-11-16T03:54:01.416Z,0
2017-11-16T03:55:01.667Z,0
2017-11-16T03:56:01.658Z,0
2017-11-16T03:57:01.386Z,0
2017-11-16T03:58:01.113Z,0
2017-11-16T03:59:01.156Z,0
2017-11-16T04:00:01.450Z,0
2017-11-16T04:01:01.703Z,0
2017-11-16T04:02:01.338Z,0
2017-11-16T04:03:01.063Z,0
2017-11-16T04:04:01.582Z,0
2017-11-16T04:05:01.562Z,0
2017-11-16T04:06:01.299Z,0
2017-11-16T04:07:01.275Z,0
2017-11-16T04:08:01.265Z,0
2017-11-16T04:09:01.518Z,0
2017-11-16T04:10:01.258Z,0
2017-11-16T04:11:01.237Z,0
2017-11-16T04:12:00.970Z,0
2017-11-16T04:13:00.696Z,0
2017-11-16T04:14:01.465Z,0
2017-11-16T04:15:01.204Z,0
2017-11-16T04:16:01.218Z,0
2017-11-16T04:17:00.913Z,0
2017-11-16T04:18:01.166Z,0
2017-11-16T04:19:01.149Z,0
2017-11-16T04:20:01.398Z,0
2017-11-16T04:21:01.389Z,0
2017-11-16T04:22:01.129Z,0
2017-11-16T04:23:01.374Z,0
2017-11-16T04:24:01.361Z,0
2017-11-16T04:25:01.095Z,0
2017-11-16T04:26:01.337Z,0
2017-11-16T04:27:01.068Z,0
2017-11-16T04:28:00.801Z,0
2017-11-16T04:29:01.048Z,0
2017-11-16T04:30:01.032Z,0
2017-11-16T04:31:01.031Z,0
2017-11-16T04:32:01.365Z,0
2017-11-16T04:33:01.002Z,0
2017-11-16T04:34:00.997Z,0
2017-11-16T04:35:01.291Z,0
2017-11-16T04:36:01.326Z,0
2017-11-16T04:37:00.961Z,0
2017-11-16T04:38:00.435Z,0
2017-11-16T04:39:01.399Z,0
2017-11-16T04:40:01.195Z,0
2017-11-16T04:41:00.924Z,0
2017-11-16T04:42:01.173Z,0
2017-11-16T04:43:00.642Z,0
2017-11-16T04:44:01.146Z,0
2017-11-16T04:45:00.623Z,0
2017-11-16T04:46:00.863Z,0
2017-11-16T04:47:00.858Z,0
2017-11-16T04:48:01.100Z,0
2017-11-16T04:49:00.832Z,0
2017-11-16T04:50:00.821Z,0
2017-11-16T04:51:00.816Z,0
2017-11-16T04:52:01.076Z,0
2017-11-16T04:53:00.788Z,0
2017-11-16T04:54:01.046Z,0
2017-11-16T04:55:01.030Z,0
2017-11-16T04:56:00.764Z,0
2017-11-16T04:57:01.014Z,0
2017-11-16T04:58:00.741Z,0
2017-11-16T04:59:00.979Z,0
2017-11-16T05:00:00.717Z,0
2017-11-16T05:01:00.708Z,0
2017-11-16T05:02:00.695Z,0
2017-11-16T05:03:00.692Z,0
2017-11-16T05:04:00.926Z,0
2017-11-16T05:05:00.666Z,0
2017-11-16T05:06:00.939Z,0
2017-11-16T05:07:00.380Z,0
2017-11-16T05:08:00.738Z,0
2017-11-16T05:09:00.878Z,0
2017-11-16T05:10:00.351Z,0
2017-11-16T05:11:00.599Z,0
2017-11-16T05:12:00.588Z,0
2017-11-16T05:13:00.678Z,0
2017-11-16T05:14:00.835Z,0
2017-11-16T05:15:00.552Z,0
2017-11-16T05:16:00.908Z,0
2017-11-16T05:17:00.532Z,0
2017-11-16T05:18:00.363Z,0
2017-11-16T05:19:00.772Z,0
2017-11-16T05:20:00.507Z,0
2017-11-16T05:21:00.755Z,0
2017-11-16T05:22:00.743Z,0
2017-11-16T05:23:00.730Z,0
2017-11-16T05:24:00.464Z,0
2017-11-16T05:25:00.712Z,0
2017-11-16T05:26:00.701Z,0
2017-11-16T05:27:00.788Z,0
2017-11-16T05:28:00.159Z,0
2017-11-16T05:29:00.415Z,0
2017-11-16T05:30:00.748Z,0
2017-11-16T05:31:00.507Z,0
2017-11-16T05:32:00.384Z,0
2017-11-16T05:33:00.107Z,0
2017-11-16T05:34:00.659Z,0
2017-11-16T05:35:00.341Z,0
2017-11-16T05:36:00.335Z,0
2017-11-16T05:37:00.582Z,0
2017-11-16T05:38:00.156Z,0
2017-11-16T05:39:00.320Z,0
2017-11-16T05:40:00.029Z,0
2017-11-16T05:41:00.122Z,0
2017-11-16T05:42:00.278Z,0
2017-11-16T05:43:00.277Z,0
2017-11-16T05:44:00.507Z,0
2017-11-16T05:45:00.499Z,0
2017-11-16T05:46:00.232Z,0
2017-11-16T05:47:00.517Z,0
2017-11-16T05:48:00.472Z,0
2017-11-16T05:49:00.206Z,0
2017-11-16T05:50:00.180Z,0
2017-11-16T05:51:00.428Z,0
2017-11-16T05:52:00.424Z,0
2017-11-16T05:53:00.427Z,0
2017-11-16T05:54:00.145Z,0
2017-11-16T05:55:00.396Z,0
2017-11-16T05:56:00.383Z,0
2017-11-16T05:56:59.592Z,0
2017-11-16T05:58:00.102Z,0
2017-11-16T05:59:00.190Z,0
2017-11-16T06:00:00.437Z,0
2017-11-16T06:01:00.326Z,0
2017-11-16T06:02:00.160Z,0
2017-11-16T06:03:00.048Z,0
2017-11-16T06:04:00.136Z,0
2017-11-16T06:05:00.301Z,0
2017-11-16T06:06:00.125Z,0
2017-11-16T06:07:00.269Z,0
2017-11-16T06:08:00.257Z,0
2017-11-16T06:08:59.991Z,0
2017-11-16T06:10:00.243Z,0
2017-11-16T06:11:00.221Z,0
2017-11-16T06:12:00.222Z,0
2017-11-16T06:12:59.940Z,0
2017-11-16T06:13:59.930Z,0
2017-11-16T06:15:00.177Z,0
2017-11-16T06:16:00.013Z,4
2017-11-16T06:16:59.905Z,4
2017-11-16T06:18:00.159Z,4
2017-11-16T06:18:59.876Z,0
2017-11-16T06:20:00.134Z,0
2017-11-16T06:20:59.864Z,4
2017-11-16T06:21:59.690Z,4
2017-11-16T06:22:59.841Z,4
2017-11-16T06:24:00.084Z,4
2017-11-16T06:24:59.825Z,4
2017-11-16T06:25:59.544Z,4
2017-11-16T06:26:59.790Z,4
2017-11-16T06:27:59.522Z,8
2017-11-16T06:28:59.782Z,8
2017-11-16T06:29:59.761Z,8
2017-11-16T06:31:00.012Z,8
2017-11-16T06:31:59.477Z,8
2017-11-16T06:32:59.732Z,12
2017-11-16T06:33:59.819Z,8
2017-11-16T06:34:59.976Z,12
2017-11-16T06:35:59.970Z,12
2017-11-16T06:36:59.695Z,12
2017-11-16T06:38:00.042Z,12
2017-11-16T06:38:59.774Z,16
2017-11-16T06:39:59.398Z,16
2017-11-16T06:40:59.644Z,16
2017-11-16T06:41:59.642Z,16
2017-11-16T06:42:59.631Z,16
2017-11-16T06:43:59.354Z,20
2017-11-16T06:44:59.445Z,20
2017-11-16T06:45:59.690Z,20
2017-11-16T06:46:59.327Z,24
2017-11-16T06:47:59.930Z,24
2017-11-16T06:48:59.661Z,24
2017-11-16T06:49:59.810Z,24
2017-11-16T06:50:59.547Z,28
2017-11-16T06:51:59.269Z,28
2017-11-16T06:52:59.518Z,28
2017-11-16T06:53:59.763Z,32
2017-11-16T06:54:59.610Z,32
2017-11-16T06:55:59.225Z,36
2017-11-16T06:56:59.476Z,36
2017-11-16T06:57:59.732Z,36
2017-11-16T06:58:59.713Z,40
2017-11-16T06:59:59.704Z,44
2017-11-16T07:00:59.174Z,44
2017-11-16T07:01:59.681Z,52
2017-11-16T07:02:59.420Z,56
2017-11-16T07:03:59.685Z,56
2017-11-16T07:04:59.656Z,60
2017-11-16T07:05:59.375Z,60
2017-11-16T07:06:59.367Z,60
2017-11-16T07:07:59.356Z,64
2017-11-16T07:08:59.615Z,68
2017-11-16T07:09:59.336Z,68
2017-11-16T07:10:59.329Z,72
2017-11-16T07:11:59.338Z,72
2017-11-16T07:12:59.311Z,72
2017-11-16T07:13:59.649Z,76
2017-11-16T07:14:59.386Z,80
2017-11-16T07:15:59.279Z,80
2017-11-16T07:16:59.263Z,84
2017-11-16T07:17:59.515Z,84
2017-11-16T07:18:59.500Z,88
2017-11-16T07:19:59.237Z,88
2017-11-16T07:20:59.486Z,92
2017-11-16T07:21:59.218Z,96
2017-11-16T07:22:59.197Z,100
2017-11-16T07:23:59.450Z,104
2017-11-16T07:24:59.441Z,112
2017-11-16T07:25:59.175Z,120
2017-11-16T07:26:59.412Z,124
2017-11-16T07:27:59.410Z,128
2017-11-16T07:28:59.407Z,132
2017-11-16T07:29:58.873Z,132
2017-11-16T07:30:59.114Z,140
2017-11-16T07:31:59.093Z,140
2017-11-16T07:32:59.090Z,140
2017-11-16T07:33:59.080Z,140
2017-11-16T07:34:59.331Z,136
2017-11-16T07:35:59.054Z,140
2017-11-16T07:36:59.040Z,140
2017-11-16T07:37:59.027Z,140
2017-11-16T07:38:59.293Z,144
2017-11-16T07:39:59.275Z,144
2017-11-16T07:40:59.260Z,152
2017-11-16T07:41:58.995Z,156
2017-11-16T07:42:58.457Z,160
2017-11-16T07:43:58.972Z,160
2017-11-16T07:44:59.221Z,160
2017-11-16T07:45:58.427Z,164
2017-11-16T07:46:58.935Z,164
2017-11-16T07:47:59.292Z,164
2017-11-16T07:48:58.916Z,164
2017-11-16T07:49:58.900Z,164
2017-11-16T07:50:58.633Z,168
2017-11-16T07:51:58.619Z,168
2017-11-16T07:52:59.125Z,168
2017-11-16T07:53:59.129Z,172
2017-11-16T07:54:59.105Z,172
2017-11-16T07:55:58.840Z,168
2017-11-16T07:56:58.832Z,168
2017-11-16T07:57:58.565Z,168
2017-11-16T07:58:59.174Z,172
2017-11-16T07:59:59.052Z,172
2017-11-16T08:00:58.791Z,172
2017-11-16T08:01:58.515Z,176
2017-11-16T08:02:58.768Z,184
2017-11-16T08:03:58.754Z,188
2017-11-16T08:04:58.840Z,192
2017-11-16T08:05:58.728Z,192
2017-11-16T08:06:58.977Z,196
2017-11-16T08:07:58.988Z,200
2017-11-16T08:08:58.703Z,204
2017-11-16T08:09:58.950Z,204
2017-11-16T08:10:58.692Z,208
2017-11-16T08:11:58.667Z,212
2017-11-16T08:12:58.676Z,212
2017-11-16T08:13:58.390Z,216
2017-11-16T08:14:58.377Z,216
2017-11-16T08:15:58.885Z,216
2017-11-16T08:16:58.618Z,224
2017-11-16T08:17:58.598Z,228
2017-11-16T08:18:58.856Z,232
2017-11-16T08:19:58.578Z,236
2017-11-16T08:20:58.828Z,244
2017-11-16T08:21:58.822Z,252
2017-11-16T08:22:58.557Z,248
2017-11-16T08:23:58.591Z,252
2017-11-16T08:24:58.274Z,252
2017-11-16T08:25:58.625Z,256
2017-11-16T08:26:58.776Z,256
2017-11-16T08:27:58.243Z,260
2017-11-16T08:28:58.753Z,260
2017-11-16T08:29:58.744Z,260
2017-11-16T08:30:58.471Z,264
2017-11-16T08:31:58.557Z,272
2017-11-16T08:32:58.805Z,280
2017-11-16T08:33:58.703Z,280
2017-11-16T08:34:58.694Z,280
2017-11-16T08:35:58.672Z,280
2017-11-16T08:36:58.401Z,284
2017-11-16T08:37:58.494Z,288
2017-11-16T08:38:58.396Z,292
2017-11-16T08:39:58.110Z,288
2017-11-16T08:40:58.357Z,292
2017-11-16T08:41:58.356Z,296
2017-11-16T08:42:58.345Z,304
2017-11-16T08:43:58.332Z,312
2017-11-16T08:44:58.324Z,324
2017-11-16T08:45:58.310Z,332
2017-11-16T08:46:58.040Z,344
2017-11-16T08:47:58.297Z,344
2017-11-16T08:48:58.020Z,352
2017-11-16T08:49:58.533Z,356
2017-11-16T08:50:58.253Z,348
2017-11-16T08:51:58.504Z,344
2017-11-16T08:52:58.233Z,356
2017-11-16T08:53:58.233Z,372
2017-11-16T08:54:58.214Z,376
2017-11-16T08:55:57.945Z,372
2017-11-16T08:56:58.299Z,380
2017-11-16T08:57:58.548Z,388
2017-11-16T08:58:58.171Z,396
2017-11-16T08:59:58.001Z,400
2017-11-16T09:00:58.150Z,396
2017-11-16T09:01:57.620Z,396
2017-11-16T09:02:58.127Z,400
2017-11-16T09:03:58.118Z,400
2017-11-16T09:04:57.848Z,400
2017-11-16T09:05:58.358Z,396
2017-11-16T09:06:57.830Z,392
2017-11-16T09:07:58.439Z,388
2017-11-16T09:08:57.803Z,384
2017-11-16T09:09:58.073Z,376
2017-11-16T09:10:58.051Z,372
2017-11-16T09:11:58.300Z,376
2017-11-16T09:12:58.294Z,380
2017-11-16T09:13:57.751Z,384
2017-11-16T09:14:58.263Z,392
2017-11-16T09:15:58.000Z,392
2017-11-16T09:16:57.999Z,388
2017-11-16T09:17:57.970Z,388
2017-11-16T09:18:57.706Z,400
2017-11-16T09:19:57.948Z,404
2017-11-16T09:20:57.959Z,412
2017-11-16T09:21:57.959Z,416
2017-11-16T09:22:57.915Z,416
2017-11-16T09:23:58.365Z,424
2017-11-16T09:24:58.259Z,432
2017-11-16T09:25:57.891Z,444
2017-11-16T09:26:57.878Z,456
2017-11-16T09:27:57.871Z,456
2017-11-16T09:28:58.156Z,444
2017-11-16T09:29:58.133Z,436
2017-11-16T09:30:58.085Z,436
2017-11-16T09:31:57.673Z,432
2017-11-16T09:32:57.809Z,428
2017-11-16T09:33:57.815Z,424
2017-11-16T09:34:58.052Z,424
2017-11-16T09:35:57.793Z,428
2017-11-16T09:36:57.519Z,424
2017-11-16T09:37:57.873Z,424
2017-11-16T09:38:57.499Z,428
2017-11-16T09:39:57.745Z,428
2017-11-16T09:40:57.482Z,432
2017-11-16T09:41:57.991Z,432
2017-11-16T09:42:57.457Z,424
2017-11-16T09:43:57.718Z,420
2017-11-16T09:44:57.960Z,436
2017-11-16T09:45:57.164Z,448
2017-11-16T09:46:57.930Z,448
2017-11-16T09:47:57.662Z,440
2017-11-16T09:48:57.910Z,444
2017-11-16T09:49:57.647Z,448
2017-11-16T09:50:57.635Z,448
2017-11-16T09:51:57.616Z,452
2017-11-16T09:52:57.620Z,452
2017-11-16T09:53:57.597Z,452
2017-11-16T09:54:57.845Z,456
2017-11-16T09:55:57.843Z,452
2017-11-16T09:56:57.567Z,448
2017-11-16T09:57:57.552Z,448
2017-11-16T09:58:57.546Z,444
2017-11-16T09:59:57.794Z,444
2017-11-16T10:00:57.890Z,440
2017-11-16T10:01:57.779Z,440
2017-11-16T10:02:57.503Z,440
2017-11-16T10:03:57.753Z,436
2017-11-16T10:04:57.486Z,436
2017-11-16T10:05:57.469Z,432
2017-11-16T10:06:57.726Z,436
2017-11-16T10:07:57.717Z,432
2017-11-16T10:08:57.809Z,432
2017-11-16T10:09:57.429Z,424
2017-11-16T10:10:57.691Z,424
2017-11-16T10:11:57.245Z,420
2017-11-16T10:12:57.667Z,420
2017-11-16T10:13:57.648Z,420
2017-11-16T10:14:57.635Z,420
2017-11-16T10:15:57.366Z,424
2017-11-16T10:16:57.093Z,432
2017-11-16T10:17:57.344Z,432
2017-11-16T10:18:57.608Z,432
2017-11-16T10:19:57.594Z,432
2017-11-16T10:20:57.593Z,432
2017-11-16T10:21:57.555Z,432
2017-11-16T10:22:57.291Z,432
2017-11-16T10:23:57.279Z,436
2017-11-16T10:24:57.264Z,444
2017-11-16T10:25:57.613Z,452
2017-11-16T10:26:57.345Z,460
2017-11-16T10:27:56.978Z,464
2017-11-16T10:28:57.487Z,464
2017-11-16T10:29:56.958Z,468
2017-11-16T10:30:57.205Z,472
2017-11-16T10:31:57.192Z,464
2017-11-16T10:32:57.474Z,460
2017-11-16T10:33:57.187Z,464
2017-11-16T10:34:57.175Z,468
2017-11-16T10:35:57.170Z,472
2017-11-16T10:36:57.144Z,492
2017-11-16T10:37:57.128Z,500
2017-11-16T10:38:57.116Z,500
2017-11-16T10:39:57.111Z,504
2017-11-16T10:40:57.097Z,500
2017-11-16T10:41:56.850Z,500
2017-11-16T10:42:57.075Z,492
2017-11-16T10:43:56.803Z,484
2017-11-16T10:44:57.315Z,480
2017-11-16T10:45:56.785Z,480
2017-11-16T10:46:57.144Z,476
2017-11-16T10:47:57.058Z,484
2017-11-16T10:48:57.275Z,484
2017-11-16T10:49:57.002Z,480
2017-11-16T10:50:57.255Z,476
2017-11-16T10:51:57.284Z,472
2017-11-16T10:52:57.252Z,480
2017-11-16T10:53:56.973Z,488
2017-11-16T10:54:57.082Z,492
2017-11-16T10:55:57.201Z,508
2017-11-16T10:56:56.672Z,520
2017-11-16T10:57:56.919Z,532
2017-11-16T10:58:57.217Z,552
2017-11-16T10:59:57.002Z,552
2017-11-16T11:00:57.155Z,544
2017-11-16T11:01:57.132Z,556
2017-11-16T11:02:57.129Z,572
2017-11-16T11:03:57.114Z,588
2017-11-16T11:04:56.846Z,580
2017-11-16T11:05:57.091Z,568
2017-11-16T11:06:56.822Z,544
2017-11-16T11:07:56.812Z,552
2017-11-16T11:08:57.058Z,552
2017-11-16T11:09:57.063Z,548
2017-11-16T11:10:56.778Z,516
2017-11-16T11:11:57.030Z,512
2017-11-16T11:12:56.758Z,520
2017-11-16T11:13:56.485Z,540
2017-11-16T11:14:56.732Z,552
2017-11-16T11:15:56.979Z,564
2017-11-16T11:16:56.454Z,556
2017-11-16T11:17:56.968Z,556
2017-11-16T11:18:56.800Z,572
2017-11-16T11:19:56.941Z,572
2017-11-16T11:20:56.932Z,572
2017-11-16T11:21:56.662Z,568
2017-11-16T11:22:56.934Z,552
2017-11-16T11:23:56.902Z,532
2017-11-16T11:24:56.630Z,520
2017-11-16T11:25:56.616Z,524
2017-11-16T11:26:56.869Z,536
2017-11-16T11:27:56.594Z,552
2017-11-16T11:28:56.439Z,548
2017-11-16T11:29:56.940Z,544
2017-11-16T11:30:56.564Z,532
2017-11-16T11:31:56.575Z,528
2017-11-16T11:32:56.025Z,520
2017-11-16T11:33:56.796Z,512
2017-11-16T11:34:56.627Z,524
2017-11-16T11:35:56.780Z,532
2017-11-16T11:36:56.521Z,524
2017-11-16T11:37:56.755Z,520
2017-11-16T11:38:56.742Z,524
2017-11-16T11:39:56.734Z,512
2017-11-16T11:40:56.464Z,504
2017-11-16T11:41:56.450Z,504
2017-11-16T11:42:56.700Z,500
2017-11-16T11:43:56.693Z,508
2017-11-16T11:44:56.423Z,504
2017-11-16T11:45:56.681Z,496
2017-11-16T11:46:56.425Z,488
2017-11-16T11:47:56.485Z,480
2017-11-16T11:48:56.656Z,472
2017-11-16T11:49:56.365Z,472
2017-11-16T11:50:56.623Z,468
2017-11-16T11:51:56.600Z,460
2017-11-16T11:52:56.600Z,456
2017-11-16T11:53:56.323Z,464
2017-11-16T11:54:56.576Z,456
2017-11-16T11:55:56.567Z,440
2017-11-16T11:56:56.293Z,424
2017-11-16T11:57:56.276Z,428
2017-11-16T11:58:56.271Z,436
2017-11-16T11:59:56.520Z,444
2017-11-16T12:00:56.511Z,444
2017-11-16T12:01:56.504Z,436
2017-11-16T12:02:56.243Z,440
2017-11-16T12:03:56.257Z,440
2017-11-16T12:04:56.206Z,452
2017-11-16T12:05:56.561Z,460
2017-11-16T12:06:56.443Z,448
2017-11-16T12:07:56.179Z,440
2017-11-16T12:08:56.174Z,452
2017-11-16T12:09:56.156Z,464
2017-11-16T12:10:56.140Z,480
2017-11-16T12:11:56.402Z,476
2017-11-16T12:12:56.125Z,476
2017-11-16T12:13:56.379Z,488
2017-11-16T12:14:56.100Z,484
2017-11-16T12:15:56.351Z,472
2017-11-16T12:16:56.352Z,456
2017-11-16T12:17:56.430Z,448
2017-11-16T12:18:55.805Z,440
2017-11-16T12:19:55.789Z,436
2017-11-16T12:20:56.050Z,428
2017-11-16T12:21:56.393Z,432
2017-11-16T12:22:56.278Z,448
2017-11-16T12:23:56.265Z,464
2017-11-16T12:24:55.998Z,440
2017-11-16T12:25:55.980Z,428
2017-11-16T12:26:56.234Z,428
2017-11-16T12:27:55.975Z,436
2017-11-16T12:28:56.212Z,440
2017-11-16T12:29:56.217Z,444
2017-11-16T12:30:56.240Z,436
2017-11-16T12:31:56.181Z,436
2017-11-16T12:32:56.222Z,440
2017-11-16T12:33:55.639Z,460
2017-11-16T12:34:56.152Z,472
2017-11-16T12:35:56.149Z,468
2017-11-16T12:36:56.128Z,468
2017-11-16T12:37:55.609Z,472
2017-11-16T12:38:55.698Z,472
2017-11-16T12:39:55.836Z,476
2017-11-16T12:40:56.089Z,480
2017-11-16T12:41:55.817Z,468
2017-11-16T12:42:55.815Z,460
2017-11-16T12:43:56.055Z,444
2017-11-16T12:44:55.796Z,444
2017-11-16T12:45:56.032Z,448
2017-11-16T12:46:56.027Z,440
2017-11-16T12:47:55.763Z,440
2017-11-16T12:48:55.746Z,444
2017-11-16T12:49:56.108Z,424
2017-11-16T12:50:55.562Z,400
2017-11-16T12:51:55.709Z,380
2017-11-16T12:52:55.963Z,380
2017-11-16T12:53:55.690Z,376
2017-11-16T12:54:55.690Z,392
2017-11-16T12:55:55.940Z,384
2017-11-16T12:56:55.925Z,368
2017-11-16T12:57:55.655Z,356
2017-11-16T12:58:55.640Z,340
2017-11-16T12:59:55.888Z,344
2017-11-16T13:00:55.362Z,356
2017-11-16T13:01:55.866Z,356
2017-11-16T13:02:55.601Z,344
2017-11-16T13:03:55.586Z,348
2017-11-16T13:04:55.584Z,356
2017-11-16T13:05:55.301Z,364
2017-11-16T13:06:55.835Z,368
2017-11-16T13:07:55.807Z,348
2017-11-16T13:08:55.548Z,312
2017-11-16T13:09:55.792Z,304
2017-11-16T13:10:55.822Z,312
2017-11-16T13:11:55.764Z,336
2017-11-16T13:12:55.750Z,348
2017-11-16T13:13:55.577Z,356
2017-11-16T13:14:55.476Z,352
2017-11-16T13:15:55.472Z,336
2017-11-16T13:16:55.707Z,336
2017-11-16T13:17:55.703Z,332
2017-11-16T13:18:55.166Z,332
2017-11-16T13:19:55.258Z,328
2017-11-16T13:20:55.145Z,328
2017-11-16T13:21:55.421Z,324
2017-11-16T13:22:55.641Z,316
2017-11-16T13:23:55.629Z,324
2017-11-16T13:24:55.621Z,328
2017-11-16T13:25:55.710Z,328
2017-11-16T13:26:55.342Z,328
2017-11-16T13:27:55.596Z,324
2017-11-16T13:28:55.589Z,320
2017-11-16T13:29:55.569Z,308
2017-11-16T13:30:55.298Z,304
2017-11-16T13:31:55.056Z,304
2017-11-16T13:32:55.540Z,312
2017-11-16T13:33:55.416Z,324
2017-11-16T13:34:55.544Z,316
2017-11-16T13:35:55.243Z,304
2017-11-16T13:36:55.530Z,296
2017-11-16T13:37:55.584Z,288
2017-11-16T13:38:54.953Z,276
2017-11-16T13:39:54.941Z,272
2017-11-16T13:40:55.198Z,268
2017-11-16T13:41:55.448Z,268
2017-11-16T13:42:55.473Z,268
2017-11-16T13:43:55.161Z,256
2017-11-16T13:44:55.411Z,260
2017-11-16T13:45:55.151Z,256
2017-11-16T13:46:55.395Z,244
2017-11-16T13:47:55.218Z,248
2017-11-16T13:48:55.382Z,244
2017-11-16T13:49:55.093Z,236
2017-11-16T13:50:55.085Z,232
2017-11-16T13:51:55.443Z,240
2017-11-16T13:52:55.064Z,240
2017-11-16T13:53:55.332Z,240
2017-11-16T13:54:55.145Z,236
2017-11-16T13:55:55.029Z,236
2017-11-16T13:56:55.279Z,232
2017-11-16T13:57:55.286Z,220
2017-11-16T13:58:54.842Z,220
2017-11-16T13:59:55.252Z,224
2017-11-16T14:00:54.979Z,224
2017-11-16T14:01:55.229Z,224
2017-11-16T14:02:55.228Z,224
2017-11-16T14:03:55.212Z,224
2017-11-16T14:04:55.200Z,224
2017-11-16T14:05:55.194Z,224
2017-11-16T14:06:54.915Z,220
2017-11-16T14:07:55.176Z,220
2017-11-16T14:08:54.635Z,220
2017-11-16T14:09:55.140Z,216
2017-11-16T14:10:54.878Z,212
2017-11-16T14:11:54.870Z,216
2017-11-16T14:12:54.854Z,212
2017-11-16T14:13:54.839Z,208